createdAt,value
2023-02-02T00:00:22.253Z,29.30
2023-02-02T00:03:44.663Z,29.40
2023-02-02T00:06:47.516Z,29.60
2023-02-02T00:09:49.788Z,29.20
2023-02-02T00:12:52.105Z,29.40
2023-02-02T00:15:54.318Z,29.20
2023-02-02T00:18:58.877Z,28.60
2023-02-02T00:22:02.390Z,29.00
2023-02-02T00:25:05.605Z,29.40
2023-02-02T00:28:07.616Z,29.10
2023-02-02T00:31:10.252Z,29.40
2023-02-02T00:34:13.904Z,29.40
2023-02-02T00:37:16.173Z,29.40
2023-02-02T00:40:18.473Z,29.60
2023-02-02T00:43:20.777Z,29.60
2023-02-02T00:46:22.929Z,29.50
2023-02-02T00:49:25.291Z,29.40
2023-02-02T00:52:27.317Z,29.70
2023-02-02T00:55:29.745Z,29.60
2023-02-02T00:58:33.118Z,29.60
2023-02-02T01:01:35.641Z,29.20
2023-02-02T01:04:37.874Z,29.50
2023-02-02T01:07:40.832Z,29.50
2023-02-02T01:10:42.852Z,29.30
2023-02-02T01:13:45.295Z,29.40
2023-02-02T01:16:47.830Z,29.00
2023-02-02T01:19:50.098Z,29.20
2023-02-02T01:22:52.592Z,28.80
2023-02-02T01:26:00.299Z,29.10
2023-02-02T01:29:02.817Z,28.10
2023-02-02T01:32:05.432Z,28.70
2023-02-02T01:35:07.899Z,28.60
2023-02-02T01:38:10.155Z,27.60
2023-02-02T01:41:18.035Z,27.90
2023-02-02T01:44:57.972Z,28.20
2023-02-02T01:48:00.929Z,28.40
2023-02-02T01:51:09.115Z,27.80
2023-02-02T01:54:17.259Z,28.60
2023-02-02T01:57:34.987Z,28.50
2023-02-02T02:00:40.072Z,28.30
2023-02-02T02:03:42.521Z,28.10
2023-02-02T02:06:45.487Z,27.80
2023-02-02T02:09:48.153Z,27.20
2023-02-02T02:12:50.417Z,26.80
2023-02-02T02:16:20.843Z,27.50
2023-02-02T02:20:01.776Z,28.30
2023-02-02T02:23:52.040Z,28.00
2023-02-02T02:27:25.912Z,27.90
2023-02-02T02:30:34.087Z,27.00
2023-02-02T02:34:14.686Z,27.50
2023-02-02T02:37:29.027Z,27.40
2023-02-02T02:40:43.046Z,27.00
2023-02-02T02:44:01.261Z,27.50
2023-02-02T02:47:04.065Z,26.70
2023-02-02T02:50:06.837Z,26.60
2023-02-02T02:53:16.180Z,27.40
2023-02-02T02:56:32.177Z,27.20
2023-02-02T02:59:37.568Z,27.30
2023-02-02T03:02:45.843Z,27.70
2023-02-02T03:06:12.630Z,27.00
2023-02-02T03:09:29.974Z,26.80
2023-02-02T03:12:32.053Z,27.20
2023-02-02T03:15:34.600Z,26.90
2023-02-02T03:18:36.988Z,27.10
2023-02-02T03:21:39.247Z,26.60
2023-02-02T03:24:41.232Z,25.70
2023-02-02T03:27:43.867Z,26.40
2023-02-02T03:30:47.336Z,25.40
2023-02-02T03:33:49.622Z,25.40
2023-02-02T03:36:51.568Z,25.90
2023-02-02T03:39:53.900Z,26.50
2023-02-02T03:42:56.280Z,25.50
2023-02-02T03:46:01.006Z,25.80
2023-02-02T03:49:03.080Z,26.20
2023-02-02T03:52:05.693Z,25.90
2023-02-02T03:55:08.172Z,26.30
2023-02-02T03:58:10.684Z,26.60
2023-02-02T04:01:13.825Z,27.10
2023-02-02T04:04:16.260Z,27.10
2023-02-02T04:07:18.235Z,27.40
2023-02-02T04:10:21.753Z,27.40
2023-02-02T04:13:23.713Z,27.80
2023-02-02T04:16:26.136Z,27.20
2023-02-02T04:19:28.153Z,27.90
2023-02-02T04:22:30.447Z,27.60
2023-02-02T04:25:33.219Z,27.40
2023-02-02T04:28:35.636Z,27.50
2023-02-02T04:31:37.825Z,27.30
2023-02-02T04:34:40.295Z,27.50
2023-02-02T04:37:42.319Z,27.70
2023-02-02T04:40:47.139Z,26.90
2023-02-02T04:43:49.319Z,26.80
2023-02-02T04:46:51.601Z,27.10
2023-02-02T04:49:53.604Z,26.50
2023-02-02T04:52:56.325Z,26.30
2023-02-02T04:55:58.977Z,25.50
2023-02-02T04:59:01.303Z,26.10
2023-02-02T05:02:03.545Z,25.90
2023-02-02T05:05:07.206Z,26.50
2023-02-02T05:08:11.976Z,25.50
2023-02-02T05:11:16.854Z,25.40
2023-02-02T05:14:20.285Z,25.50
2023-02-02T05:17:22.560Z,25.30
2023-02-02T05:20:24.554Z,25.30
2023-02-02T05:23:27.458Z,25.20
2023-02-02T05:26:29.846Z,25.30
2023-02-02T05:29:32.307Z,25.40
2023-02-02T05:32:34.269Z,25.50
2023-02-02T05:35:36.566Z,25.20
2023-02-02T05:38:39.175Z,25.40
2023-02-02T05:41:42.000Z,25.60
2023-02-02T05:44:43.990Z,25.40
2023-02-02T05:47:46.262Z,26.10
2023-02-02T05:51:12.321Z,25.60
2023-02-02T05:54:19.320Z,25.10
2023-02-02T05:57:21.451Z,25.40
2023-02-02T06:00:23.727Z,25.10
2023-02-02T06:03:26.008Z,25.20
2023-02-02T06:06:28.285Z,25.90
2023-02-02T06:09:30.304Z,25.40
2023-02-02T06:12:32.669Z,24.70
2023-02-02T06:15:35.773Z,24.80
2023-02-02T06:18:38.269Z,25.20
2023-02-02T06:21:40.287Z,25.60
2023-02-02T06:24:42.524Z,25.40
2023-02-02T06:27:46.275Z,25.30
2023-02-02T06:30:48.608Z,25.50
2023-02-02T06:33:56.239Z,25.70
2023-02-02T06:36:58.579Z,24.90
2023-02-02T06:40:00.944Z,24.70
2023-02-02T06:43:06.094Z,24.70
2023-02-02T06:46:08.108Z,25.10
2023-02-02T06:49:10.428Z,25.20
2023-02-02T06:52:12.549Z,24.60
2023-02-02T06:55:14.868Z,24.70
2023-02-02T06:58:16.961Z,24.80
2023-02-02T07:01:19.367Z,24.80
2023-02-02T07:04:21.868Z,24.80
2023-02-02T07:07:24.124Z,24.30
2023-02-02T07:11:14.414Z,24.20
2023-02-02T07:13:49.880Z,24.20
2023-02-02T07:16:51.910Z,24.20
2023-02-02T07:19:54.178Z,23.80
2023-02-02T07:22:56.293Z,23.80
2023-02-02T07:26:09.789Z,23.90
2023-02-02T07:29:13.996Z,23.30
2023-02-02T07:32:16.228Z,23.70
2023-02-02T07:35:18.539Z,24.30
2023-02-02T07:38:21.520Z,23.60
2023-02-02T07:41:24.078Z,23.30
2023-02-02T07:44:26.599Z,23.90
2023-02-02T07:47:28.633Z,24.30
2023-02-02T07:50:31.812Z,24.30
2023-02-02T07:53:34.422Z,24.40
2023-02-02T07:56:38.915Z,24.00
2023-02-02T07:59:40.923Z,24.40
2023-02-02T08:02:43.298Z,24.00
2023-02-02T08:05:45.456Z,23.40
2023-02-02T08:08:48.959Z,23.90
2023-02-02T08:11:50.917Z,23.30
2023-02-02T08:14:53.221Z,23.50
2023-02-02T08:17:55.336Z,23.70
2023-02-02T08:21:02.476Z,24.20
2023-02-02T08:24:05.220Z,25.00
2023-02-02T08:27:08.274Z,24.80
2023-02-02T08:30:11.041Z,24.60
2023-02-02T08:33:13.681Z,24.70
2023-02-02T08:36:17.604Z,24.60
2023-02-02T08:39:19.989Z,25.10
2023-02-02T08:42:22.235Z,24.90
2023-02-02T08:46:03.973Z,25.10
2023-02-02T08:48:48.258Z,24.80
2023-02-02T08:51:50.523Z,25.80
2023-02-02T08:54:52.510Z,26.00
2023-02-02T08:57:54.781Z,25.60
2023-02-02T09:01:06.052Z,25.80
2023-02-02T09:04:18.181Z,25.90
2023-02-02T09:07:21.257Z,25.60
2023-02-02T09:10:23.848Z,24.90
2023-02-02T09:13:25.815Z,24.90
2023-02-02T09:16:28.742Z,25.40
2023-02-02T09:19:30.787Z,25.40
2023-02-02T09:22:33.528Z,25.70
2023-02-02T09:25:35.558Z,24.60
2023-02-02T09:28:43.072Z,25.50
2023-02-02T09:31:45.431Z,26.00
2023-02-02T09:34:48.186Z,25.20
2023-02-02T09:37:50.318Z,25.10
2023-02-02T09:40:52.673Z,25.60
2023-02-02T09:44:24.885Z,25.60
2023-02-02T09:47:32.901Z,25.50
2023-02-02T09:50:43.750Z,25.60
2023-02-02T09:54:12.881Z,25.50
2023-02-02T09:57:29.155Z,24.80
2023-02-02T10:00:36.521Z,24.70
2023-02-02T10:04:15.834Z,25.00
2023-02-02T10:07:24.913Z,25.50
2023-02-02T10:10:38.077Z,26.70
2023-02-02T10:13:43.668Z,26.30
2023-02-02T10:16:48.245Z,25.20
2023-02-02T10:19:53.996Z,23.40
2023-02-02T10:23:03.976Z,24.20
2023-02-02T10:26:12.779Z,24.40
2023-02-02T10:29:48.184Z,24.60
2023-02-02T10:33:06.711Z,23.60
2023-02-02T10:36:35.311Z,22.50
2023-02-02T10:39:57.669Z,21.40
2023-02-02T10:43:46.238Z,21.90
2023-02-02T10:46:56.585Z,22.30
2023-02-02T10:50:13.704Z,23.70
2023-02-02T10:53:16.923Z,23.80
2023-02-02T10:56:40.399Z,24.30
2023-02-02T10:59:59.504Z,23.70
2023-02-02T11:03:04.702Z,23.00
2023-02-02T11:06:27.289Z,24.20
2023-02-02T11:09:56.191Z,25.00
2023-02-02T11:13:08.068Z,25.60
2023-02-02T11:16:16.383Z,25.00
2023-02-02T11:19:40.338Z,24.10
2023-02-02T11:22:44.277Z,24.90
2023-02-02T11:26:00.060Z,26.50
2023-02-02T11:29:02.126Z,25.90
2023-02-02T11:32:29.897Z,24.70
2023-02-02T11:35:32.158Z,24.40
2023-02-02T11:38:34.446Z,22.70
2023-02-02T11:41:37.599Z,21.30
2023-02-02T11:44:40.481Z,19.90
2023-02-02T11:47:42.677Z,20.40
2023-02-02T11:50:56.527Z,21.20
2023-02-02T11:54:06.609Z,22.20
2023-02-02T11:57:10.461Z,21.60
2023-02-02T12:00:18.020Z,21.20
2023-02-02T12:03:38.174Z,21.80
2023-02-02T12:06:40.995Z,21.70
2023-02-02T12:09:43.312Z,20.40
2023-02-02T12:12:53.832Z,20.00
2023-02-02T12:15:58.855Z,19.80
2023-02-02T12:19:24.283Z,20.10
2023-02-02T12:22:45.329Z,19.50
2023-02-02T12:25:59.290Z,18.40
2023-02-02T12:29:14.632Z,20.20
2023-02-02T12:32:28.326Z,20.60
2023-02-02T12:35:51.884Z,19.90
2023-02-02T12:39:31.906Z,20.30
2023-02-02T12:42:43.203Z,22.50
2023-02-02T12:45:48.281Z,23.70
2023-02-02T12:49:13.840Z,24.00
2023-02-02T12:52:34.043Z,25.40
2023-02-02T12:55:57.818Z,24.80
2023-02-02T12:59:31.725Z,25.80
2023-02-02T13:03:01.016Z,26.10
2023-02-02T13:06:13.044Z,27.30
2023-02-02T13:09:27.773Z,26.50
2023-02-02T13:12:32.570Z,26.20
2023-02-02T13:15:39.177Z,25.50
2023-02-02T13:19:20.284Z,24.90
2023-02-02T13:22:45.159Z,24.30
2023-02-02T13:25:54.991Z,24.20
2023-02-02T13:29:43.940Z,24.10
2023-02-02T13:32:53.233Z,23.30
2023-02-02T13:36:09.718Z,21.30
2023-02-02T13:39:20.488Z,21.00
2023-02-02T13:42:48.041Z,21.70
2023-02-02T13:46:06.317Z,22.30
2023-02-02T13:49:15.079Z,23.30
2023-02-02T13:52:47.758Z,23.10
2023-02-02T13:56:09.513Z,22.70
2023-02-02T13:59:30.776Z,22.60
2023-02-02T14:02:42.182Z,21.80
2023-02-02T14:06:06.442Z,21.60
2023-02-02T14:09:18.577Z,21.40
2023-02-02T14:12:30.743Z,22.10
2023-02-02T14:15:44.920Z,23.70
2023-02-02T14:18:50.905Z,24.60
2023-02-02T14:22:13.195Z,24.20
2023-02-02T14:25:33.763Z,24.60
2023-02-02T14:28:41.741Z,24.60
2023-02-02T14:31:55.188Z,24.40
2023-02-02T14:34:59.340Z,24.60
2023-02-02T14:38:09.325Z,24.30
2023-02-02T14:42:12.634Z,22.60
2023-02-02T14:45:31.910Z,22.00
2023-02-02T14:48:34.771Z,20.90
2023-02-02T14:51:48.625Z,20.00
2023-02-02T14:54:51.848Z,20.20
2023-02-02T14:57:57.474Z,20.20
2023-02-02T15:01:07.719Z,20.00
2023-02-02T15:04:22.140Z,19.50
2023-02-02T15:07:24.171Z,20.50
2023-02-02T15:10:53.652Z,21.30
2023-02-02T15:14:07.089Z,21.20
2023-02-02T15:17:30.790Z,20.70
2023-02-02T15:20:49.331Z,19.70
2023-02-02T15:23:51.803Z,20.70
2023-02-02T15:26:55.746Z,20.40
2023-02-02T15:30:04.406Z,21.20
2023-02-02T15:33:23.368Z,21.40
2023-02-02T15:36:32.421Z,22.50
2023-02-02T15:39:41.724Z,21.90
2023-02-02T15:42:55.701Z,21.20
2023-02-02T15:46:33.485Z,23.40
2023-02-02T15:49:36.436Z,22.90
2023-02-02T15:52:49.185Z,24.00
2023-02-02T15:55:55.102Z,23.20
2023-02-02T15:58:59.926Z,22.90
2023-02-02T16:02:43.163Z,23.00
2023-02-02T16:05:52.039Z,22.90
2023-02-02T16:08:55.199Z,23.30
2023-02-02T16:11:57.669Z,22.50
2023-02-02T16:15:00.520Z,21.90
2023-02-02T16:18:13.393Z,23.40
2023-02-02T16:21:24.215Z,24.10
2023-02-02T16:24:31.476Z,24.60
2023-02-02T16:27:34.743Z,23.40
2023-02-02T16:30:40.189Z,23.10
2023-02-02T16:33:44.928Z,22.10
2023-02-02T16:37:12.671Z,21.90
2023-02-02T16:40:30.660Z,21.30
2023-02-02T16:43:33.276Z,18.70
2023-02-02T16:46:49.587Z,17.50
2023-02-02T16:49:55.219Z,17.80
2023-02-02T16:53:03.113Z,18.50
2023-02-02T16:56:06.514Z,17.80
2023-02-02T16:59:36.280Z,18.70
2023-02-02T17:02:46.011Z,19.30
2023-02-02T17:05:51.946Z,19.80
2023-02-02T17:08:54.025Z,19.00
2023-02-02T17:12:03.172Z,19.50
2023-02-02T17:15:34.881Z,19.80
2023-02-02T17:18:37.585Z,19.20
2023-02-02T17:21:39.715Z,20.60
2023-02-02T17:24:45.274Z,21.50
2023-02-02T17:27:47.684Z,21.90
2023-02-02T17:31:00.612Z,21.20
2023-02-02T17:34:02.918Z,20.30
2023-02-02T17:37:05.279Z,21.60
2023-02-02T17:40:09.445Z,20.10
2023-02-02T17:43:12.896Z,19.50
2023-02-02T17:46:15.196Z,20.20
2023-02-02T17:49:17.614Z,20.50
2023-02-02T17:52:24.183Z,20.30
2023-02-02T17:55:39.867Z,19.60
2023-02-02T17:58:41.931Z,19.20
2023-02-02T18:01:45.677Z,19.30
2023-02-02T18:05:13.820Z,19.60
2023-02-02T18:08:16.496Z,20.70
2023-02-02T18:11:19.747Z,20.90
2023-02-02T18:14:22.119Z,22.40
2023-02-02T18:17:24.135Z,23.10
2023-02-02T18:20:27.736Z,24.10
2023-02-02T18:23:29.831Z,23.90
2023-02-02T18:26:34.487Z,23.30
2023-02-02T18:29:36.984Z,23.20
2023-02-02T18:32:41.432Z,21.70
2023-02-02T18:35:44.477Z,21.00
2023-02-02T18:38:48.588Z,20.60
2023-02-02T18:41:50.897Z,21.30
2023-02-02T18:44:53.687Z,22.80
2023-02-02T18:47:55.667Z,23.20
2023-02-02T18:51:05.075Z,22.40
2023-02-02T18:54:07.133Z,23.00
2023-02-02T18:57:11.346Z,23.00
2023-02-02T19:00:14.061Z,23.20
2023-02-02T19:03:16.497Z,24.40
2023-02-02T19:06:37.660Z,25.00
2023-02-02T19:09:40.282Z,24.40
2023-02-02T19:12:47.973Z,23.30
2023-02-02T19:15:51.167Z,23.60
2023-02-02T19:19:06.960Z,23.30
2023-02-02T19:22:22.396Z,22.70
2023-02-02T19:25:25.232Z,23.40
2023-02-02T19:28:31.034Z,24.30
2023-02-02T19:31:33.150Z,24.00
2023-02-02T19:34:35.574Z,24.10
2023-02-02T19:37:40.059Z,24.20
2023-02-02T19:40:43.700Z,23.60
2023-02-02T19:43:47.860Z,22.30
2023-02-02T19:46:54.293Z,23.00
2023-02-02T19:49:58.932Z,22.70
2023-02-02T19:53:06.440Z,24.00
2023-02-02T19:56:30.477Z,24.70
2023-02-02T19:59:35.562Z,25.40
2023-02-02T20:02:55.531Z,25.90
2023-02-02T20:06:04.014Z,26.40
2023-02-02T20:09:14.905Z,26.80
2023-02-02T20:12:25.524Z,27.10
2023-02-02T20:15:36.366Z,27.40
2023-02-02T20:18:46.491Z,27.50
2023-02-02T20:21:52.139Z,27.50
2023-02-02T20:25:03.696Z,27.60
2023-02-02T20:28:21.928Z,27.50
2023-02-02T20:31:28.764Z,27.60
2023-02-02T20:34:39.769Z,27.60
2023-02-02T20:37:42.647Z,27.70
2023-02-02T20:40:45.353Z,27.70
2023-02-02T20:43:47.724Z,27.70
2023-02-02T20:46:57.201Z,27.70
2023-02-02T20:50:07.020Z,27.60
2023-02-02T20:53:10.907Z,27.60
2023-02-02T20:56:15.348Z,27.60
2023-02-02T20:59:21.140Z,27.50
2023-02-02T21:02:24.911Z,27.40
2023-02-02T21:05:27.179Z,27.40
2023-02-02T21:08:29.436Z,27.40
2023-02-02T21:11:31.829Z,27.40
2023-02-02T21:14:34.548Z,27.30
2023-02-02T21:17:36.955Z,27.30
2023-02-02T21:20:39.213Z,27.30
2023-02-02T21:23:46.431Z,27.30
2023-02-02T21:26:52.124Z,27.20
2023-02-02T21:29:54.579Z,27.20
2023-02-02T21:32:57.353Z,27.10
2023-02-02T21:36:02.798Z,27.10
2023-02-02T21:45:53.471Z,27.10
2023-02-02T21:48:56.154Z,27.20
2023-02-02T21:52:02.138Z,27.40
2023-02-02T21:55:36.226Z,27.40
2023-02-02T21:58:39.741Z,27.60
2023-02-02T22:01:42.697Z,27.70
2023-02-02T22:04:45.101Z,27.80
2023-02-02T22:07:49.706Z,27.80
2023-02-02T22:10:51.794Z,27.80
2023-02-02T22:13:55.675Z,27.70
2023-02-02T22:16:59.072Z,27.70
2023-02-02T22:20:14.541Z,27.60
2023-02-02T22:23:21.304Z,27.50
2023-02-02T22:26:33.228Z,27.50
2023-02-02T22:29:35.612Z,27.40
2023-02-02T22:32:37.950Z,27.20
2023-02-02T22:35:44.578Z,27.30
2023-02-02T22:38:47.540Z,27.20
2023-02-02T22:41:49.585Z,27.30
2023-02-02T22:44:52.009Z,27.20
2023-02-02T22:47:54.541Z,27.20
2023-02-02T22:51:00.158Z,27.20
2023-02-02T22:54:02.179Z,27.10
2023-02-02T22:57:04.601Z,27.10
2023-02-02T23:00:21.920Z,27.00
2023-02-02T23:03:24.229Z,27.00
2023-02-02T23:06:26.266Z,27.00
2023-02-02T23:09:28.517Z,26.70
2023-02-02T23:12:30.783Z,26.80
2023-02-02T23:15:33.456Z,27.00
2023-02-02T23:18:35.533Z,27.00
2023-02-02T23:21:37.871Z,27.00
2023-02-02T23:24:39.880Z,26.90
2023-02-02T23:27:42.580Z,26.50
2023-02-02T23:30:44.738Z,26.70
2023-02-02T23:33:47.059Z,26.70
2023-02-02T23:36:49.158Z,26.70
2023-02-02T23:39:51.420Z,26.60
2023-02-02T23:42:53.423Z,26.80
2023-02-02T23:45:55.798Z,26.80
2023-02-02T23:48:59.892Z,27.00
2023-02-02T23:52:02.700Z,27.00
2023-02-02T23:55:05.787Z,27.10
2023-02-02T23:58:08.755Z,27.00
